Otho, IA (50569)

11:05 AM CDT am 29. August 2014 (GMT -0500)
Duncombe School area | Change Station
CLOSE
Current Station
Persönliche Wetterstationen
Location: Fort Dodge, IA
Höhe: 1109 ft
Wetterstationen in der Umgebung

Höhe 1109 ft 42.51 °N, 94.18 °W | Updated 5 seconds ago

Wolkig
Wolkig
78.6 °F
gefühlte 81 °F
N
0.9
Wind Wechselnd Wind aus Nord
Gusts 9.0 mph

Heute
Max. -- | schwach -- °F
--% Regenrisiko
Gestern
Max. -- | schwach -- °F
Precip. -- inch
6:38 AM 7:55 PM
Erstes Viertel, 15% visible
Druck 29.83 inch
Sichtweite 10.0 Meilen
Wolken Teils Wolkig 1500 ft
Hitzeindex 81 °F
Taupunkt 72 °F
Feuchtigkeit 81%
Regen 0.37 inch
Schneehöhe Nicht verfügbar..
UV 5 von 12
Pollen 6.50 von 12
Luftqualität Nicht verfügbar..
Flu Activity Nicht verfügbar..
METAR KFOD 291555Z AUTO 22006KT 10SM SCT015 24/21 A2983 RMK AO1

More Conditions Fewer Conditions

Druck 29.83 inch
Sichtweite 10.0 Meilen
Wolken Teils Wolkig 1500 ft
Hitzeindex 81 °F
Taupunkt 72 °F
Feuchtigkeit 81%
Regen 0.37 inch
Schneehöhe Nicht verfügbar..
UV 5 von 12
Pollen 6.50 von 12
Luftqualität Nicht verfügbar..
Flu Activity Nicht verfügbar..
METAR KFOD 291555Z AUTO 22006KT 10SM SCT015 24/21 A2983 RMK AO1

More Conditions Fewer Conditions

10-Day Weather Forecast

Almanac

Astronomie

Aug. 29, 2014 Aufgang Untergang
Genaue Zeit 06:38 CDT 19:55 CDT
Bürgerliche Dämmerung 06:09 CDT 20:24 CDT
Nautische Dämmerung 05:34 CDT 20:59 CDT
Astronomische Dämmerung 04:57 CDT 21:36 CDT
Mond 10:34 CDT 21:47 CDT
Länge des sichtbaren Lichts 14h 15m
Tageslänge
13h 17m
Tomorrow will be 2m 45s shorter.
Erstes Viertel, 15% of the Moon is Illuminated
Heute
Erstes Viertel
Sept 2
Erstes Viertel
Sept 8
Vollmond
Sept 15
Letztes Viertel
Sept 24
Neu

Heutige Rekorde

State Highs State Lows

Community

WunderPhotos

Upload Photos

1,748,270 Fotos hochgeladen!

Nearby

Schneehöhe

Station Depth Höhe
Kein Neuschnee gemeldet.

Erdbebenaktivität

Stadt Distance Mag. Time & Date
No recent earthquake activity has been reported nearby.
Minimum magnitude displayed is 2.5.

küstennahe Wassertemperaturen

Ort Temperatur
Kein Stationsbericht

Wetterstationen in der Umgebung